sensor_id;sensor_type;location;lat;lon;timestamp;P1;durP1;ratioP1;P2;durP2;ratioP2
7879;SDS011;3985;49.366;2.738;2022-09-02T00:01:12;6.75;;;6.75;;
7879;SDS011;3985;49.366;2.738;2022-09-02T00:03:41;7.75;;;7.25;;
7879;SDS011;3985;49.366;2.738;2022-09-02T00:06:10;6.50;;;6.50;;
7879;SDS011;3985;49.366;2.738;2022-09-02T00:08:39;7.25;;;5.50;;
7879;SDS011;3985;49.366;2.738;2022-09-02T00:11:09;6.00;;;6.00;;
7879;SDS011;3985;49.366;2.738;2022-09-02T00:13:39;6.75;;;6.75;;
7879;SDS011;3985;49.366;2.738;2022-09-02T00:16:06;7.00;;;7.00;;
7879;SDS011;3985;49.366;2.738;2022-09-02T00:18:34;6.75;;;6.75;;
7879;SDS011;3985;49.366;2.738;2022-09-02T00:21:03;6.25;;;6.25;;
7879;SDS011;3985;49.366;2.738;2022-09-02T00:23:31;6.25;;;6.25;;
7879;SDS011;3985;49.366;2.738;2022-09-02T00:25:59;6.50;;;6.50;;
7879;SDS011;3985;49.366;2.738;2022-09-02T00:28:26;6.50;;;6.50;;
7879;SDS011;3985;49.366;2.738;2022-09-02T00:30:53;7.75;;;7.75;;
7879;SDS011;3985;49.366;2.738;2022-09-02T00:33:21;7.75;;;7.75;;
7879;SDS011;3985;49.366;2.738;2022-09-02T00:35:48;5.75;;;5.75;;
7879;SDS011;3985;49.366;2.738;2022-09-02T00:38:17;6.00;;;6.00;;
7879;SDS011;3985;49.366;2.738;2022-09-02T00:40:46;6.00;;;6.00;;
7879;SDS011;3985;49.366;2.738;2022-09-02T00:43:20;8.50;;;7.00;;
7879;SDS011;3985;49.366;2.738;2022-09-02T00:45:49;6.75;;;6.75;;
7879;SDS011;3985;49.366;2.738;2022-09-02T00:48:16;10.25;;;6.50;;
7879;SDS011;3985;49.366;2.738;2022-09-02T00:50:43;6.00;;;6.00;;
7879;SDS011;3985;49.366;2.738;2022-09-02T00:53:11;8.00;;;7.25;;
7879;SDS011;3985;49.366;2.738;2022-09-02T00:55:42;9.75;;;8.50;;
7879;SDS011;3985;49.366;2.738;2022-09-02T00:58:13;6.75;;;5.00;;
7879;SDS011;3985;49.366;2.738;2022-09-02T01:00:43;7.25;;;6.00;;
7879;SDS011;3985;49.366;2.738;2022-09-02T01:03:12;6.00;;;6.00;;
7879;SDS011;3985;49.366;2.738;2022-09-02T01:05:42;7.00;;;7.00;;
7879;SDS011;3985;49.366;2.738;2022-09-02T01:08:10;7.50;;;7.00;;
7879;SDS011;3985;49.366;2.738;2022-09-02T01:10:39;7.75;;;7.75;;
7879;SDS011;3985;49.366;2.738;2022-09-02T01:13:09;7.25;;;7.25;;
7879;SDS011;3985;49.366;2.738;2022-09-02T01:15:39;6.00;;;6.00;;
7879;SDS011;3985;49.366;2.738;2022-09-02T01:18:09;6.00;;;6.00;;
7879;SDS011;3985;49.366;2.738;2022-09-02T01:20:43;9.00;;;7.25;;
7879;SDS011;3985;49.366;2.738;2022-09-02T01:23:12;9.75;;;8.00;;
7879;SDS011;3985;49.366;2.738;2022-09-02T01:25:41;6.50;;;6.50;;
7879;SDS011;3985;49.366;2.738;2022-09-02T01:28:10;8.50;;;7.25;;
7879;SDS011;3985;49.366;2.738;2022-09-02T01:30:41;8.00;;;7.75;;
7879;SDS011;3985;49.366;2.738;2022-09-02T01:33:10;9.00;;;9.00;;
7879;SDS011;3985;49.366;2.738;2022-09-02T01:35:38;7.75;;;7.75;;
7879;SDS011;3985;49.366;2.738;2022-09-02T01:38:06;8.00;;;7.00;;
7879;SDS011;3985;49.366;2.738;2022-09-02T01:40:35;7.50;;;7.50;;
7879;SDS011;3985;49.366;2.738;2022-09-02T01:43:04;5.75;;;5.75;;
7879;SDS011;3985;49.366;2.738;2022-09-02T01:45:33;6.00;;;6.00;;
7879;SDS011;3985;49.366;2.738;2022-09-02T01:48:02;9.00;;;7.25;;
7879;SDS011;3985;49.366;2.738;2022-09-02T01:50:30;9.50;;;8.25;;
7879;SDS011;3985;49.366;2.738;2022-09-02T01:52:58;7.00;;;7.00;;
7879;SDS011;3985;49.366;2.738;2022-09-02T01:55:27;6.25;;;6.25;;
7879;SDS011;3985;49.366;2.738;2022-09-02T01:57:56;7.75;;;7.75;;
7879;SDS011;3985;49.366;2.738;2022-09-02T02:00:24;6.00;;;6.00;;
7879;SDS011;3985;49.366;2.738;2022-09-02T02:02:51;6.50;;;6.50;;
7879;SDS011;3985;49.366;2.738;2022-09-02T02:05:18;6.50;;;6.50;;
7879;SDS011;3985;49.366;2.738;2022-09-02T02:07:46;7.50;;;7.50;;
7879;SDS011;3985;49.366;2.738;2022-09-02T02:10:14;6.75;;;6.25;;
7879;SDS011;3985;49.366;2.738;2022-09-02T02:12:42;7.50;;;7.00;;
7879;SDS011;3985;49.366;2.738;2022-09-02T02:15:12;8.00;;;8.00;;
7879;SDS011;3985;49.366;2.738;2022-09-02T02:17:41;9.00;;;9.00;;
7879;SDS011;3985;49.366;2.738;2022-09-02T02:20:09;9.00;;;9.00;;
7879;SDS011;3985;49.366;2.738;2022-09-02T02:22:39;7.50;;;7.50;;
7879;SDS011;3985;49.366;2.738;2022-09-02T02:25:07;6.25;;;6.25;;
7879;SDS011;3985;49.366;2.738;2022-09-02T02:27:35;11.00;;;8.50;;
7879;SDS011;3985;49.366;2.738;2022-09-02T02:30:03;9.50;;;9.50;;
7879;SDS011;3985;49.366;2.738;2022-09-02T02:32:33;11.00;;;7.75;;
7879;SDS011;3985;49.366;2.738;2022-09-02T02:35:01;8.50;;;8.50;;
7879;SDS011;3985;49.366;2.738;2022-09-02T02:37:28;8.75;;;8.75;;
7879;SDS011;3985;49.366;2.738;2022-09-02T02:39:56;8.00;;;8.00;;
7879;SDS011;3985;49.366;2.738;2022-09-02T02:42:23;9.75;;;8.75;;
7879;SDS011;3985;49.366;2.738;2022-09-02T02:44:51;8.00;;;8.00;;
7879;SDS011;3985;49.366;2.738;2022-09-02T02:47:19;11.00;;;9.75;;
7879;SDS011;3985;49.366;2.738;2022-09-02T02:49:47;8.25;;;8.25;;
7879;SDS011;3985;49.366;2.738;2022-09-02T02:52:15;8.00;;;8.00;;
7879;SDS011;3985;49.366;2.738;2022-09-02T02:54:42;12.00;;;10.00;;
7879;SDS011;3985;49.366;2.738;2022-09-02T02:57:09;8.50;;;8.50;;
7879;SDS011;3985;49.366;2.738;2022-09-02T02:59:37;8.50;;;8.50;;
7879;SDS011;3985;49.366;2.738;2022-09-02T03:02:05;10.00;;;10.00;;
7879;SDS011;3985;49.366;2.738;2022-09-02T03:04:32;8.75;;;8.75;;
7879;SDS011;3985;49.366;2.738;2022-09-02T03:07:01;11.50;;;9.50;;
7879;SDS011;3985;49.366;2.738;2022-09-02T03:09:31;8.25;;;8.25;;
7879;SDS011;3985;49.366;2.738;2022-09-02T03:11:58;10.25;;;10.25;;
7879;SDS011;3985;49.366;2.738;2022-09-02T03:14:27;9.50;;;9.50;;
7879;SDS011;3985;49.366;2.738;2022-09-02T03:16:55;10.25;;;10.00;;
7879;SDS011;3985;49.366;2.738;2022-09-02T03:19:22;11.50;;;10.25;;
7879;SDS011;3985;49.366;2.738;2022-09-02T03:21:49;9.50;;;9.50;;
7879;SDS011;3985;49.366;2.738;2022-09-02T03:24:18;9.25;;;9.25;;
7879;SDS011;3985;49.366;2.738;2022-09-02T03:26:45;8.50;;;8.50;;
7879;SDS011;3985;49.366;2.738;2022-09-02T03:29:13;10.25;;;10.25;;
7879;SDS011;3985;49.366;2.738;2022-09-02T03:31:40;9.75;;;9.00;;
7879;SDS011;3985;49.366;2.738;2022-09-02T03:34:07;9.25;;;9.00;;
7879;SDS011;3985;49.366;2.738;2022-09-02T03:36:36;11.00;;;9.00;;
7879;SDS011;3985;49.366;2.738;2022-09-02T03:39:04;10.25;;;10.25;;
7879;SDS011;3985;49.366;2.738;2022-09-02T03:41:34;10.00;;;9.00;;
7879;SDS011;3985;49.366;2.738;2022-09-02T03:44:01;8.75;;;8.75;;
7879;SDS011;3985;49.366;2.738;2022-09-02T03:46:29;7.75;;;7.75;;
7879;SDS011;3985;49.366;2.738;2022-09-02T03:48:57;9.00;;;9.00;;
7879;SDS011;3985;49.366;2.738;2022-09-02T03:51:24;7.00;;;7.00;;
7879;SDS011;3985;49.366;2.738;2022-09-02T03:53:52;9.25;;;8.25;;
7879;SDS011;3985;49.366;2.738;2022-09-02T03:56:20;7.75;;;7.75;;
7879;SDS011;3985;49.366;2.738;2022-09-02T03:58:51;9.00;;;9.00;;
7879;SDS011;3985;49.366;2.738;2022-09-02T04:01:19;8.75;;;8.75;;
7879;SDS011;3985;49.366;2.738;2022-09-02T04:03:48;8.25;;;8.25;;
7879;SDS011;3985;49.366;2.738;2022-09-02T04:06:17;8.00;;;8.00;;
7879;SDS011;3985;49.366;2.738;2022-09-02T04:08:46;9.50;;;9.50;;
7879;SDS011;3985;49.366;2.738;2022-09-02T04:11:15;11.00;;;9.50;;
7879;SDS011;3985;49.366;2.738;2022-09-02T04:13:44;9.25;;;9.25;;
7879;SDS011;3985;49.366;2.738;2022-09-02T04:16:15;8.00;;;7.00;;
7879;SDS011;3985;49.366;2.738;2022-09-02T04:18:43;8.50;;;8.50;;
7879;SDS011;3985;49.366;2.738;2022-09-02T04:21:10;8.00;;;8.00;;
7879;SDS011;3985;49.366;2.738;2022-09-02T04:23:38;10.25;;;10.25;;
7879;SDS011;3985;49.366;2.738;2022-09-02T04:26:05;6.50;;;6.50;;
7879;SDS011;3985;49.366;2.738;2022-09-02T04:28:34;9.75;;;9.75;;
7879;SDS011;3985;49.366;2.738;2022-09-02T04:31:02;8.00;;;8.00;;
7879;SDS011;3985;49.366;2.738;2022-09-02T04:33:32;10.00;;;9.00;;
7879;SDS011;3985;49.366;2.738;2022-09-02T04:36:02;8.00;;;8.00;;
7879;SDS011;3985;49.366;2.738;2022-09-02T04:38:31;6.50;;;6.50;;
7879;SDS011;3985;49.366;2.738;2022-09-02T04:40:59;9.00;;;9.00;;
7879;SDS011;3985;49.366;2.738;2022-09-02T04:43:26;10.50;;;9.25;;
7879;SDS011;3985;49.366;2.738;2022-09-02T04:45:54;9.25;;;9.25;;
7879;SDS011;3985;49.366;2.738;2022-09-02T04:48:21;8.00;;;8.00;;
7879;SDS011;3985;49.366;2.738;2022-09-02T04:50:50;8.00;;;8.00;;
7879;SDS011;3985;49.366;2.738;2022-09-02T04:53:17;9.75;;;9.75;;
7879;SDS011;3985;49.366;2.738;2022-09-02T04:55:45;9.00;;;9.00;;
7879;SDS011;3985;49.366;2.738;2022-09-02T04:58:13;7.50;;;7.50;;
7879;SDS011;3985;49.366;2.738;2022-09-02T05:00:40;9.50;;;9.50;;
7879;SDS011;3985;49.366;2.738;2022-09-02T05:03:08;8.50;;;8.50;;
7879;SDS011;3985;49.366;2.738;2022-09-02T05:05:37;8.00;;;8.00;;
7879;SDS011;3985;49.366;2.738;2022-09-02T05:08:06;6.25;;;6.25;;
7879;SDS011;3985;49.366;2.738;2022-09-02T05:10:34;10.75;;;10.00;;
7879;SDS011;3985;49.366;2.738;2022-09-02T05:13:01;10.75;;;9.00;;
7879;SDS011;3985;49.366;2.738;2022-09-02T05:15:29;9.00;;;7.75;;
7879;SDS011;3985;49.366;2.738;2022-09-02T05:17:57;10.00;;;10.00;;
7879;SDS011;3985;49.366;2.738;2022-09-02T05:20:24;10.00;;;10.00;;
7879;SDS011;3985;49.366;2.738;2022-09-02T05:22:52;10.25;;;10.25;;
7879;SDS011;3985;49.366;2.738;2022-09-02T05:25:21;8.50;;;8.50;;
7879;SDS011;3985;49.366;2.738;2022-09-02T05:27:49;7.25;;;7.25;;
7879;SDS011;3985;49.366;2.738;2022-09-02T05:30:16;9.50;;;9.50;;
7879;SDS011;3985;49.366;2.738;2022-09-02T05:32:43;11.25;;;9.25;;
7879;SDS011;3985;49.366;2.738;2022-09-02T05:35:11;10.50;;;10.50;;
7879;SDS011;3985;49.366;2.738;2022-09-02T05:37:38;8.00;;;8.00;;
7879;SDS011;3985;49.366;2.738;2022-09-02T05:40:06;10.25;;;8.75;;
7879;SDS011;3985;49.366;2.738;2022-09-02T05:42:37;12.00;;;10.00;;
7879;SDS011;3985;49.366;2.738;2022-09-02T05:45:05;10.25;;;10.25;;
7879;SDS011;3985;49.366;2.738;2022-09-02T05:47:34;9.25;;;9.25;;
7879;SDS011;3985;49.366;2.738;2022-09-02T05:50:01;12.75;;;12.75;;
7879;SDS011;3985;49.366;2.738;2022-09-02T05:52:29;10.75;;;10.75;;
7879;SDS011;3985;49.366;2.738;2022-09-02T05:54:58;10.50;;;10.50;;
7879;SDS011;3985;49.366;2.738;2022-09-02T05:57:27;12.00;;;12.00;;
7879;SDS011;3985;49.366;2.738;2022-09-02T05:59:57;10.25;;;9.75;;
7879;SDS011;3985;49.366;2.738;2022-09-02T06:02:25;14.50;;;13.50;;
7879;SDS011;3985;49.366;2.738;2022-09-02T06:04:53;17.25;;;14.75;;
7879;SDS011;3985;49.366;2.738;2022-09-02T06:07:21;19.50;;;16.25;;
7879;SDS011;3985;49.366;2.738;2022-09-02T06:09:49;17.25;;;16.00;;
7879;SDS011;3985;49.366;2.738;2022-09-02T06:12:18;14.75;;;14.75;;
7879;SDS011;3985;49.366;2.738;2022-09-02T06:14:46;18.00;;;15.75;;
7879;SDS011;3985;49.366;2.738;2022-09-02T06:17:15;17.25;;;15.50;;
7879;SDS011;3985;49.366;2.738;2022-09-02T06:19:43;12.00;;;12.00;;
7879;SDS011;3985;49.366;2.738;2022-09-02T06:22:11;14.25;;;14.25;;
7879;SDS011;3985;49.366;2.738;2022-09-02T06:24:38;12.00;;;12.00;;
7879;SDS011;3985;49.366;2.738;2022-09-02T06:27:05;13.00;;;13.00;;
7879;SDS011;3985;49.366;2.738;2022-09-02T06:29:33;9.50;;;9.00;;
7879;SDS011;3985;49.366;2.738;2022-09-02T06:32:01;15.75;;;13.00;;
7879;SDS011;3985;49.366;2.738;2022-09-02T06:34:31;12.50;;;8.75;;
7879;SDS011;3985;49.366;2.738;2022-09-02T06:36:59;11.00;;;11.00;;
7879;SDS011;3985;49.366;2.738;2022-09-02T06:39:27;9.25;;;9.25;;
7879;SDS011;3985;49.366;2.738;2022-09-02T06:41:54;10.25;;;10.25;;
7879;SDS011;3985;49.366;2.738;2022-09-02T06:44:22;11.75;;;9.75;;
7879;SDS011;3985;49.366;2.738;2022-09-02T06:46:52;7.75;;;7.75;;
7879;SDS011;3985;49.366;2.738;2022-09-02T06:49:21;9.00;;;7.50;;
7879;SDS011;3985;49.366;2.738;2022-09-02T06:51:50;7.00;;;7.00;;
7879;SDS011;3985;49.366;2.738;2022-09-02T06:54:20;9.25;;;8.00;;
7879;SDS011;3985;49.366;2.738;2022-09-02T06:56:48;7.50;;;6.75;;
7879;SDS011;3985;49.366;2.738;2022-09-02T06:59:16;5.75;;;5.75;;
7879;SDS011;3985;49.366;2.738;2022-09-02T07:01:44;10.00;;;7.00;;
7879;SDS011;3985;49.366;2.738;2022-09-02T07:04:11;6.50;;;6.50;;
7879;SDS011;3985;49.366;2.738;2022-09-02T07:06:57;8.00;;;8.00;;
7879;SDS011;3985;49.366;2.738;2022-09-02T07:09:25;8.75;;;8.00;;
7879;SDS011;3985;49.366;2.738;2022-09-02T07:11:55;8.50;;;8.50;;
7879;SDS011;3985;49.366;2.738;2022-09-02T07:14:24;10.00;;;10.00;;
7879;SDS011;3985;49.366;2.738;2022-09-02T07:16:53;7.75;;;7.25;;
7879;SDS011;3985;49.366;2.738;2022-09-02T07:19:22;7.00;;;7.00;;
7879;SDS011;3985;49.366;2.738;2022-09-02T07:21:50;7.75;;;7.75;;
7879;SDS011;3985;49.366;2.738;2022-09-02T07:24:19;8.25;;;7.75;;
7879;SDS011;3985;49.366;2.738;2022-09-02T07:26:47;6.00;;;6.00;;
7879;SDS011;3985;49.366;2.738;2022-09-02T07:29:15;11.50;;;10.00;;
7879;SDS011;3985;49.366;2.738;2022-09-02T07:31:43;7.50;;;7.00;;
7879;SDS011;3985;49.366;2.738;2022-09-02T07:34:12;7.25;;;7.00;;
7879;SDS011;3985;49.366;2.738;2022-09-02T07:36:40;6.25;;;6.25;;
7879;SDS011;3985;49.366;2.738;2022-09-02T07:39:10;8.50;;;8.50;;
7879;SDS011;3985;49.366;2.738;2022-09-02T07:41:40;10.75;;;10.75;;
7879;SDS011;3985;49.366;2.738;2022-09-02T07:44:08;11.25;;;9.50;;
7879;SDS011;3985;49.366;2.738;2022-09-02T07:46:36;9.25;;;9.00;;
7879;SDS011;3985;49.366;2.738;2022-09-02T07:49:05;10.75;;;10.75;;
7879;SDS011;3985;49.366;2.738;2022-09-02T07:51:34;10.25;;;9.00;;
7879;SDS011;3985;49.366;2.738;2022-09-02T07:54:03;9.00;;;9.00;;
7879;SDS011;3985;49.366;2.738;2022-09-02T07:56:31;8.00;;;8.00;;
7879;SDS011;3985;49.366;2.738;2022-09-02T07:59:00;13.50;;;9.75;;
7879;SDS011;3985;49.366;2.738;2022-09-02T08:01:28;11.25;;;11.25;;
7879;SDS011;3985;49.366;2.738;2022-09-02T08:03:56;12.00;;;10.00;;
7879;SDS011;3985;49.366;2.738;2022-09-02T08:06:23;9.50;;;9.50;;
7879;SDS011;3985;49.366;2.738;2022-09-02T08:08:53;11.00;;;11.00;;
7879;SDS011;3985;49.366;2.738;2022-09-02T08:11:20;11.00;;;11.00;;
7879;SDS011;3985;49.366;2.738;2022-09-02T08:13:48;12.50;;;11.00;;
7879;SDS011;3985;49.366;2.738;2022-09-02T08:16:18;12.00;;;10.75;;
7879;SDS011;3985;49.366;2.738;2022-09-02T08:18:45;11.50;;;11.50;;
7879;SDS011;3985;49.366;2.738;2022-09-02T08:21:12;12.75;;;12.00;;
7879;SDS011;3985;49.366;2.738;2022-09-02T08:23:40;11.75;;;11.75;;
7879;SDS011;3985;49.366;2.738;2022-09-02T08:26:07;11.00;;;11.00;;
7879;SDS011;3985;49.366;2.738;2022-09-02T08:28:35;11.00;;;11.00;;
7879;SDS011;3985;49.366;2.738;2022-09-02T08:31:04;8.75;;;8.75;;
7879;SDS011;3985;49.366;2.738;2022-09-02T08:33:33;12.25;;;9.75;;
7879;SDS011;3985;49.366;2.738;2022-09-02T08:36:02;8.00;;;8.00;;
7879;SDS011;3985;49.366;2.738;2022-09-02T08:38:29;11.75;;;11.75;;
7879;SDS011;3985;49.366;2.738;2022-09-02T08:40:57;10.00;;;10.00;;
7879;SDS011;3985;49.366;2.738;2022-09-02T08:43:26;8.75;;;8.75;;
7879;SDS011;3985;49.366;2.738;2022-09-02T08:45:57;11.25;;;11.00;;
7879;SDS011;3985;49.366;2.738;2022-09-02T08:48:33;9.40;;;9.40;;
7879;SDS011;3985;49.366;2.738;2022-09-02T08:51:04;10.00;;;10.00;;
7879;SDS011;3985;49.366;2.738;2022-09-02T08:53:35;9.00;;;9.00;;
7879;SDS011;3985;49.366;2.738;2022-09-02T08:56:07;9.60;;;7.20;;
7879;SDS011;3985;49.366;2.738;2022-09-02T08:58:38;11.60;;;10.40;;
7879;SDS011;3985;49.366;2.738;2022-09-02T09:01:08;10.60;;;10.00;;
7879;SDS011;3985;49.366;2.738;2022-09-02T09:03:46;8.80;;;7.00;;
7879;SDS011;3985;49.366;2.738;2022-09-02T09:06:28;11.00;;;9.40;;
7879;SDS011;3985;49.366;2.738;2022-09-02T09:09:12;8.80;;;8.80;;
7879;SDS011;3985;49.366;2.738;2022-09-02T09:11:45;7.60;;;7.60;;
7879;SDS011;3985;49.366;2.738;2022-09-02T09:14:19;10.20;;;10.20;;
7879;SDS011;3985;49.366;2.738;2022-09-02T09:16:54;10.00;;;10.00;;
7879;SDS011;3985;49.366;2.738;2022-09-02T09:19:27;7.40;;;7.40;;
7879;SDS011;3985;49.366;2.738;2022-09-02T09:21:59;8.80;;;8.80;;
7879;SDS011;3985;49.366;2.738;2022-09-02T09:24:29;8.00;;;8.00;;
7879;SDS011;3985;49.366;2.738;2022-09-02T09:27:02;7.80;;;7.80;;
7879;SDS011;3985;49.366;2.738;2022-09-02T09:29:32;8.00;;;8.00;;
7879;SDS011;3985;49.366;2.738;2022-09-02T09:32:03;11.00;;;9.60;;
7879;SDS011;3985;49.366;2.738;2022-09-02T09:37:30;9.80;;;9.80;;
7879;SDS011;3985;49.366;2.738;2022-09-02T09:39:59;9.20;;;9.20;;
7879;SDS011;3985;49.366;2.738;2022-09-02T09:42:31;9.20;;;9.20;;
7879;SDS011;3985;49.366;2.738;2022-09-02T09:44:59;9.00;;;8.20;;
7879;SDS011;3985;49.366;2.738;2022-09-02T09:47:41;9.40;;;9.40;;
7879;SDS011;3985;49.366;2.738;2022-09-02T09:50:11;9.00;;;9.00;;
7879;SDS011;3985;49.366;2.738;2022-09-02T09:52:41;11.00;;;11.00;;
7879;SDS011;3985;49.366;2.738;2022-09-02T09:55:14;7.20;;;7.20;;
7879;SDS011;3985;49.366;2.738;2022-09-02T09:57:44;8.60;;;8.60;;
7879;SDS011;3985;49.366;2.738;2022-09-02T10:00:13;10.00;;;10.00;;
7879;SDS011;3985;49.366;2.738;2022-09-02T10:02:48;8.80;;;8.80;;
7879;SDS011;3985;49.366;2.738;2022-09-02T10:05:26;8.40;;;8.40;;
7879;SDS011;3985;49.366;2.738;2022-09-02T10:07:57;8.60;;;8.60;;
7879;SDS011;3985;49.366;2.738;2022-09-02T10:10:27;11.00;;;9.00;;
7879;SDS011;3985;49.366;2.738;2022-09-02T10:12:59;9.40;;;9.40;;
7879;SDS011;3985;49.366;2.738;2022-09-02T10:15:42;9.00;;;9.00;;
7879;SDS011;3985;49.366;2.738;2022-09-02T10:18:16;10.80;;;10.00;;
7879;SDS011;3985;49.366;2.738;2022-09-02T10:21:04;9.20;;;9.20;;
7879;SDS011;3985;49.366;2.738;2022-09-02T10:23:38;8.40;;;8.40;;
7879;SDS011;3985;49.366;2.738;2022-09-02T10:26:12;10.40;;;9.60;;
7879;SDS011;3985;49.366;2.738;2022-09-02T10:31:54;12.80;;;11.40;;
7879;SDS011;3985;49.366;2.738;2022-09-02T10:34:32;13.60;;;13.60;;
7879;SDS011;3985;49.366;2.738;2022-09-02T10:39:53;10.60;;;10.60;;
7879;SDS011;3985;49.366;2.738;2022-09-02T10:42:39;14.80;;;13.00;;
7879;SDS011;3985;49.366;2.738;2022-09-02T10:45:18;15.80;;;12.60;;
7879;SDS011;3985;49.366;2.738;2022-09-02T10:47:51;12.20;;;12.20;;
7879;SDS011;3985;49.366;2.738;2022-09-02T10:50:25;16.80;;;16.00;;
7879;SDS011;3985;49.366;2.738;2022-09-02T10:55:57;11.60;;;11.60;;
7879;SDS011;3985;49.366;2.738;2022-09-02T10:58:29;14.20;;;11.20;;
7879;SDS011;3985;49.366;2.738;2022-09-02T11:01:06;14.60;;;14.60;;
7879;SDS011;3985;49.366;2.738;2022-09-02T11:03:37;11.20;;;11.20;;
7879;SDS011;3985;49.366;2.738;2022-09-02T11:06:08;12.80;;;12.80;;
7879;SDS011;3985;49.366;2.738;2022-09-02T11:08:40;14.00;;;14.00;;
7879;SDS011;3985;49.366;2.738;2022-09-02T11:11:11;13.80;;;13.80;;
7879;SDS011;3985;49.366;2.738;2022-09-02T11:13:49;15.60;;;13.60;;
7879;SDS011;3985;49.366;2.738;2022-09-02T11:16:21;14.60;;;14.60;;
7879;SDS011;3985;49.366;2.738;2022-09-02T11:18:51;11.20;;;11.20;;
7879;SDS011;3985;49.366;2.738;2022-09-02T11:21:26;12.80;;;12.80;;
7879;SDS011;3985;49.366;2.738;2022-09-02T11:24:05;14.40;;;13.40;;
7879;SDS011;3985;49.366;2.738;2022-09-02T11:26:36;10.60;;;10.60;;
7879;SDS011;3985;49.366;2.738;2022-09-02T11:29:08;11.60;;;11.60;;
7879;SDS011;3985;49.366;2.738;2022-09-02T11:31:41;11.20;;;11.20;;
7879;SDS011;3985;49.366;2.738;2022-09-02T11:34:18;12.20;;;11.60;;
7879;SDS011;3985;49.366;2.738;2022-09-02T11:36:49;6.20;;;6.20;;
7879;SDS011;3985;49.366;2.738;2022-09-02T11:39:20;12.00;;;12.00;;
7879;SDS011;3985;49.366;2.738;2022-09-02T11:41:59;14.20;;;14.00;;
7879;SDS011;3985;49.366;2.738;2022-09-02T11:47:45;12.60;;;11.20;;
7879;SDS011;3985;49.366;2.738;2022-09-02T11:50:31;9.00;;;7.40;;
7879;SDS011;3985;49.366;2.738;2022-09-02T11:53:16;12.40;;;11.40;;
7879;SDS011;3985;49.366;2.738;2022-09-02T11:55:47;11.00;;;9.00;;
7879;SDS011;3985;49.366;2.738;2022-09-02T11:58:33;11.60;;;11.60;;
7879;SDS011;3985;49.366;2.738;2022-09-02T12:01:04;10.60;;;10.60;;
7879;SDS011;3985;49.366;2.738;2022-09-02T12:03:43;11.80;;;11.60;;
7879;SDS011;3985;49.366;2.738;2022-09-02T12:06:13;12.80;;;12.80;;
7879;SDS011;3985;49.366;2.738;2022-09-02T12:08:56;11.00;;;11.00;;
7879;SDS011;3985;49.366;2.738;2022-09-02T12:11:35;13.00;;;13.00;;
7879;SDS011;3985;49.366;2.738;2022-09-02T12:14:08;10.80;;;10.80;;
7879;SDS011;3985;49.366;2.738;2022-09-02T12:16:41;9.20;;;8.20;;
7879;SDS011;3985;49.366;2.738;2022-09-02T12:19:22;13.60;;;13.20;;
7879;SDS011;3985;49.366;2.738;2022-09-02T12:28:13;10.00;;;10.00;;
7879;SDS011;3985;49.366;2.738;2022-09-02T12:33:37;12.40;;;12.40;;
7879;SDS011;3985;49.366;2.738;2022-09-02T12:36:05;10.80;;;10.80;;
7879;SDS011;3985;49.366;2.738;2022-09-02T12:38:35;9.60;;;8.80;;
7879;SDS011;3985;49.366;2.738;2022-09-02T12:41:12;11.00;;;9.60;;
7879;SDS011;3985;49.366;2.738;2022-09-02T12:43:50;10.60;;;10.60;;
7879;SDS011;3985;49.366;2.738;2022-09-02T12:46:25;11.80;;;9.80;;
7879;SDS011;3985;49.366;2.738;2022-09-02T12:49:02;9.00;;;9.00;;
7879;SDS011;3985;49.366;2.738;2022-09-02T12:51:51;8.40;;;8.40;;
7879;SDS011;3985;49.366;2.738;2022-09-02T12:54:22;10.80;;;10.80;;
7879;SDS011;3985;49.366;2.738;2022-09-02T12:56:53;7.80;;;7.60;;
7879;SDS011;3985;49.366;2.738;2022-09-02T12:59:24;11.00;;;11.00;;
7879;SDS011;3985;49.366;2.738;2022-09-02T13:01:58;9.60;;;8.40;;
7879;SDS011;3985;49.366;2.738;2022-09-02T13:04:42;10.00;;;10.00;;
7879;SDS011;3985;49.366;2.738;2022-09-02T13:10:45;10.80;;;10.80;;
7879;SDS011;3985;49.366;2.738;2022-09-02T13:13:45;12.20;;;12.20;;
7879;SDS011;3985;49.366;2.738;2022-09-02T13:16:26;11.20;;;11.20;;
7879;SDS011;3985;49.366;2.738;2022-09-02T13:22:09;8.00;;;8.00;;
7879;SDS011;3985;49.366;2.738;2022-09-02T13:31:12;11.60;;;11.60;;
7879;SDS011;3985;49.366;2.738;2022-09-02T13:33:46;9.60;;;8.80;;
7879;SDS011;3985;49.366;2.738;2022-09-02T13:36:19;11.20;;;11.20;;
7879;SDS011;3985;49.366;2.738;2022-09-02T13:38:52;13.40;;;10.80;;
7879;SDS011;3985;49.366;2.738;2022-09-02T13:41:26;10.40;;;10.40;;
7879;SDS011;3985;49.366;2.738;2022-09-02T13:44:04;8.20;;;7.60;;
7879;SDS011;3985;49.366;2.738;2022-09-02T13:46:32;10.80;;;10.80;;
7879;SDS011;3985;49.366;2.738;2022-09-02T13:49:09;9.60;;;9.60;;
7879;SDS011;3985;49.366;2.738;2022-09-02T13:51:44;13.00;;;12.40;;
7879;SDS011;3985;49.366;2.738;2022-09-02T13:54:12;11.00;;;11.00;;
7879;SDS011;3985;49.366;2.738;2022-09-02T13:56:40;13.40;;;12.00;;
7879;SDS011;3985;49.366;2.738;2022-09-02T13:59:07;9.00;;;9.00;;
7879;SDS011;3985;49.366;2.738;2022-09-02T14:01:36;11.20;;;10.60;;
7879;SDS011;3985;49.366;2.738;2022-09-02T14:04:04;10.20;;;10.20;;
7879;SDS011;3985;49.366;2.738;2022-09-02T14:06:37;11.60;;;11.60;;
7879;SDS011;3985;49.366;2.738;2022-09-02T14:09:07;11.60;;;11.60;;
7879;SDS011;3985;49.366;2.738;2022-09-02T14:11:47;11.20;;;11.20;;
7879;SDS011;3985;49.366;2.738;2022-09-02T14:14:15;12.80;;;12.80;;
7879;SDS011;3985;49.366;2.738;2022-09-02T14:16:45;11.60;;;11.60;;
7879;SDS011;3985;49.366;2.738;2022-09-02T14:19:21;14.40;;;13.80;;
7879;SDS011;3985;49.366;2.738;2022-09-02T14:21:51;12.80;;;12.80;;
7879;SDS011;3985;49.366;2.738;2022-09-02T14:24:21;13.00;;;12.40;;
7879;SDS011;3985;49.366;2.738;2022-09-02T14:26:50;11.00;;;9.20;;
7879;SDS011;3985;49.366;2.738;2022-09-02T14:29:18;10.80;;;10.80;;
7879;SDS011;3985;49.366;2.738;2022-09-02T14:32:01;12.00;;;12.00;;
7879;SDS011;3985;49.366;2.738;2022-09-02T14:34:33;11.40;;;11.40;;
7879;SDS011;3985;49.366;2.738;2022-09-02T14:37:14;10.80;;;10.80;;
7879;SDS011;3985;49.366;2.738;2022-09-02T14:40:01;10.00;;;10.00;;
7879;SDS011;3985;49.366;2.738;2022-09-02T14:42:32;10.60;;;10.60;;
7879;SDS011;3985;49.366;2.738;2022-09-02T14:45:00;11.80;;;9.80;;
7879;SDS011;3985;49.366;2.738;2022-09-02T14:47:29;11.40;;;10.80;;
7879;SDS011;3985;49.366;2.738;2022-09-02T14:49:57;8.20;;;8.20;;
7879;SDS011;3985;49.366;2.738;2022-09-02T14:52:26;11.80;;;11.80;;
7879;SDS011;3985;49.366;2.738;2022-09-02T14:54:57;12.80;;;11.20;;
7879;SDS011;3985;49.366;2.738;2022-09-02T14:57:25;12.40;;;10.20;;
7879;SDS011;3985;49.366;2.738;2022-09-02T14:59:54;12.80;;;12.80;;
7879;SDS011;3985;49.366;2.738;2022-09-02T15:02:22;12.60;;;11.40;;
7879;SDS011;3985;49.366;2.738;2022-09-02T15:04:54;11.60;;;10.60;;
7879;SDS011;3985;49.366;2.738;2022-09-02T15:07:23;10.00;;;9.20;;
7879;SDS011;3985;49.366;2.738;2022-09-02T15:09:52;11.60;;;11.60;;
7879;SDS011;3985;49.366;2.738;2022-09-02T15:12:21;10.80;;;10.80;;
7879;SDS011;3985;49.366;2.738;2022-09-02T15:14:51;9.80;;;9.80;;
7879;SDS011;3985;49.366;2.738;2022-09-02T15:17:18;9.00;;;9.00;;
7879;SDS011;3985;49.366;2.738;2022-09-02T15:19:46;10.80;;;10.20;;
7879;SDS011;3985;49.366;2.738;2022-09-02T15:22:14;10.40;;;10.40;;
7879;SDS011;3985;49.366;2.738;2022-09-02T15:24:44;10.40;;;9.00;;
7879;SDS011;3985;49.366;2.738;2022-09-02T15:27:13;9.20;;;9.20;;
7879;SDS011;3985;49.366;2.738;2022-09-02T15:29:41;10.00;;;10.00;;
7879;SDS011;3985;49.366;2.738;2022-09-02T15:32:08;12.60;;;11.40;;
7879;SDS011;3985;49.366;2.738;2022-09-02T15:34:35;11.60;;;11.60;;
7879;SDS011;3985;49.366;2.738;2022-09-02T15:37:03;10.20;;;10.20;;
7879;SDS011;3985;49.366;2.738;2022-09-02T15:39:33;10.40;;;9.60;;
7879;SDS011;3985;49.366;2.738;2022-09-02T15:42:02;10.60;;;10.60;;
7879;SDS011;3985;49.366;2.738;2022-09-02T15:44:30;9.60;;;9.60;;
7879;SDS011;3985;49.366;2.738;2022-09-02T15:47:03;8.00;;;8.00;;
7879;SDS011;3985;49.366;2.738;2022-09-02T15:49:30;8.00;;;8.00;;
7879;SDS011;3985;49.366;2.738;2022-09-02T15:51:58;10.00;;;8.40;;
7879;SDS011;3985;49.366;2.738;2022-09-02T15:54:26;9.40;;;9.40;;
7879;SDS011;3985;49.366;2.738;2022-09-02T15:56:56;6.00;;;6.00;;
7879;SDS011;3985;49.366;2.738;2022-09-02T15:59:25;9.00;;;7.40;;